Downham Market, United Kingdom
Current Conditions -  °F | °C
As of 4:50 PM on Tuesday 21 Oct 2014 (Local Time) from EGYM Reporting Station
Few Clouds Few Clouds  
Wind Chill: 50°   Ceiling: Unl
Heat Index: 50°   Visibility: 6mi
Dew Point: 39°   Wind: 28mph
Humidity: 66%   Direction: 280°W
Pressure: 29.71"   Gusts: NA
Location:  52.6°N, 0.38°E
Report Text: EGYM 211550Z 28024KT 9999 FEW028 10/04 Q1006 BLU NOSIG
Loading
Personal Weather Stations






























Interactive Weather Map
Tropical Storm Tracking
New forecast layout! Learn more

10-Day Weather Forecast

Advertisements
Track Severe Weather on mobile